sensor_id;sensor_type;location;lat;lon;timestamp;P1;durP1;ratioP1;P2;durP2;ratioP2
73107;SDS011;61559;50.476;15.588;2024-03-23T00:55:15;13.00;;;6.60;;
73107;SDS011;61559;50.476;15.588;2024-03-23T00:57:46;17.50;;;7.90;;
73107;SDS011;61559;50.476;15.588;2024-03-23T01:00:17;18.30;;;8.90;;
73107;SDS011;61559;50.476;15.588;2024-03-23T01:02:48;17.40;;;8.90;;
73107;SDS011;61559;50.476;15.588;2024-03-23T01:05:19;11.60;;;6.60;;
73107;SDS011;61559;50.476;15.588;2024-03-23T01:07:49;11.80;;;6.00;;
73107;SDS011;61559;50.476;15.588;2024-03-23T01:10:20;10.20;;;5.70;;
73107;SDS011;61559;50.476;15.588;2024-03-23T01:12:51;9.90;;;6.00;;
73107;SDS011;61559;50.476;15.588;2024-03-23T01:15:21;9.30;;;5.80;;
73107;SDS011;61559;50.476;15.588;2024-03-23T01:17:52;11.80;;;6.80;;
73107;SDS011;61559;50.476;15.588;2024-03-23T01:20:23;11.40;;;6.10;;
73107;SDS011;61559;50.476;15.588;2024-03-23T01:22:54;12.00;;;6.80;;
73107;SDS011;61559;50.476;15.588;2024-03-23T01:25:29;12.40;;;6.50;;
73107;SDS011;61559;50.476;15.588;2024-03-23T01:27:59;11.30;;;6.00;;
73107;SDS011;61559;50.476;15.588;2024-03-23T01:30:30;11.10;;;6.00;;
73107;SDS011;61559;50.476;15.588;2024-03-23T01:35:30;10.50;;;6.00;;
73107;SDS011;61559;50.476;15.588;2024-03-23T01:40:30;17.00;;;8.00;;
73107;SDS011;61559;50.476;15.588;2024-03-23T01:43:03;25.10;;;12.50;;
73107;SDS011;61559;50.476;15.588;2024-03-23T01:45:52;37.00;;;17.30;;
73107;SDS011;61559;50.476;15.588;2024-03-23T01:48:23;16.10;;;7.90;;
73107;SDS011;61559;50.476;15.588;2024-03-23T01:50:54;17.20;;;7.80;;
73107;SDS011;61559;50.476;15.588;2024-03-23T01:53:25;18.00;;;9.00;;
73107;SDS011;61559;50.476;15.588;2024-03-23T02:00:55;13.80;;;7.50;;
73107;SDS011;61559;50.476;15.588;2024-03-23T02:03:28;12.20;;;6.30;;
73107;SDS011;61559;50.476;15.588;2024-03-23T02:05:59;9.20;;;5.00;;
73107;SDS011;61559;50.476;15.588;2024-03-23T02:08:30;10.70;;;5.50;;
73107;SDS011;61559;50.476;15.588;2024-03-23T02:11:01;12.00;;;5.80;;
73107;SDS011;61559;50.476;15.588;2024-03-23T02:13:32;10.00;;;5.60;;
73107;SDS011;61559;50.476;15.588;2024-03-23T02:16:03;11.60;;;6.00;;
73107;SDS011;61559;50.476;15.588;2024-03-23T02:18:35;11.60;;;5.70;;
73107;SDS011;61559;50.476;15.588;2024-03-23T02:21:06;10.20;;;5.50;;
73107;SDS011;61559;50.476;15.588;2024-03-23T02:23:37;9.90;;;5.70;;
73107;SDS011;61559;50.476;15.588;2024-03-23T02:26:07;9.10;;;5.50;;
73107;SDS011;61559;50.476;15.588;2024-03-23T02:28:38;8.50;;;5.30;;
73107;SDS011;61559;50.476;15.588;2024-03-23T02:31:08;10.30;;;5.30;;
73107;SDS011;61559;50.476;15.588;2024-03-23T02:33:39;8.20;;;4.70;;
73107;SDS011;61559;50.476;15.588;2024-03-23T02:38:39;11.30;;;5.70;;
73107;SDS011;61559;50.476;15.588;2024-03-23T02:41:10;10.50;;;5.60;;
73107;SDS011;61559;50.476;15.588;2024-03-23T02:43:41;12.60;;;6.50;;
73107;SDS011;61559;50.476;15.588;2024-03-23T02:46:13;12.30;;;5.80;;
73107;SDS011;61559;50.476;15.588;2024-03-23T02:48:43;9.30;;;5.20;;
73107;SDS011;61559;50.476;15.588;2024-03-23T02:51:17;9.70;;;5.10;;
73107;SDS011;61559;50.476;15.588;2024-03-23T02:53:48;9.30;;;5.10;;
73107;SDS011;61559;50.476;15.588;2024-03-23T02:56:19;10.70;;;5.70;;
73107;SDS011;61559;50.476;15.588;2024-03-23T02:58:49;11.20;;;5.70;;
73107;SDS011;61559;50.476;15.588;2024-03-23T03:01:20;10.10;;;5.20;;
73107;SDS011;61559;50.476;15.588;2024-03-23T03:03:51;10.70;;;6.10;;
73107;SDS011;61559;50.476;15.588;2024-03-23T03:06:25;9.50;;;5.10;;
73107;SDS011;61559;50.476;15.588;2024-03-23T03:08:58;11.10;;;5.40;;
73107;SDS011;61559;50.476;15.588;2024-03-23T03:11:29;12.90;;;5.80;;
73107;SDS011;61559;50.476;15.588;2024-03-23T03:13:59;10.40;;;5.30;;
73107;SDS011;61559;50.476;15.588;2024-03-23T03:16:30;9.40;;;5.30;;
73107;SDS011;61559;50.476;15.588;2024-03-23T03:19:01;11.90;;;6.10;;
73107;SDS011;61559;50.476;15.588;2024-03-23T03:21:32;9.50;;;5.40;;
73107;SDS011;61559;50.476;15.588;2024-03-23T03:24:03;9.50;;;5.20;;
73107;SDS011;61559;50.476;15.588;2024-03-23T03:26:35;11.80;;;5.70;;
73107;SDS011;61559;50.476;15.588;2024-03-23T03:29:05;10.60;;;5.30;;
73107;SDS011;61559;50.476;15.588;2024-03-23T03:31:36;13.30;;;6.00;;
73107;SDS011;61559;50.476;15.588;2024-03-23T03:36:37;9.10;;;4.70;;
73107;SDS011;61559;50.476;15.588;2024-03-23T03:39:07;10.40;;;5.10;;
73107;SDS011;61559;50.476;15.588;2024-03-23T03:41:38;8.70;;;4.70;;
73107;SDS011;61559;50.476;15.588;2024-03-23T03:44:09;7.70;;;4.70;;
73107;SDS011;61559;50.476;15.588;2024-03-23T03:46:39;9.90;;;5.00;;
73107;SDS011;61559;50.476;15.588;2024-03-23T03:49:10;8.00;;;5.00;;
73107;SDS011;61559;50.476;15.588;2024-03-23T03:51:41;8.10;;;4.70;;
73107;SDS011;61559;50.476;15.588;2024-03-23T03:54:11;9.30;;;5.10;;
73107;SDS011;61559;50.476;15.588;2024-03-23T03:56:42;9.50;;;5.40;;
73107;SDS011;61559;50.476;15.588;2024-03-23T03:59:13;14.40;;;5.90;;
73107;SDS011;61559;50.476;15.588;2024-03-23T04:01:43;8.40;;;4.60;;
73107;SDS011;61559;50.476;15.588;2024-03-23T04:04:14;9.00;;;4.90;;
73107;SDS011;61559;50.476;15.588;2024-03-23T04:06:45;10.10;;;4.80;;
73107;SDS011;61559;50.476;15.588;2024-03-23T04:09:16;10.00;;;5.70;;
73107;SDS011;61559;50.476;15.588;2024-03-23T04:11:47;9.80;;;5.40;;
73107;SDS011;61559;50.476;15.588;2024-03-23T04:14:18;12.90;;;6.20;;
73107;SDS011;61559;50.476;15.588;2024-03-23T04:16:48;13.20;;;4.80;;
73107;SDS011;61559;50.476;15.588;2024-03-23T04:19:19;11.70;;;4.80;;
73107;SDS011;61559;50.476;15.588;2024-03-23T04:21:50;10.40;;;5.40;;
73107;SDS011;61559;50.476;15.588;2024-03-23T04:24:20;12.50;;;5.20;;
73107;SDS011;61559;50.476;15.588;2024-03-23T04:26:53;11.10;;;5.60;;
73107;SDS011;61559;50.476;15.588;2024-03-23T04:29:23;9.80;;;4.80;;
73107;SDS011;61559;50.476;15.588;2024-03-23T04:31:54;9.40;;;4.90;;
73107;SDS011;61559;50.476;15.588;2024-03-23T04:34:25;13.30;;;5.80;;
73107;SDS011;61559;50.476;15.588;2024-03-23T04:36:56;11.30;;;4.90;;
73107;SDS011;61559;50.476;15.588;2024-03-23T04:39:27;8.60;;;4.70;;
73107;SDS011;61559;50.476;15.588;2024-03-23T04:41:58;7.10;;;4.30;;
73107;SDS011;61559;50.476;15.588;2024-03-23T04:44:29;12.50;;;5.30;;
73107;SDS011;61559;50.476;15.588;2024-03-23T04:49:30;7.70;;;4.60;;
73107;SDS011;61559;50.476;15.588;2024-03-23T04:52:00;10.30;;;4.70;;
73107;SDS011;61559;50.476;15.588;2024-03-23T04:54:31;10.50;;;5.20;;
73107;SDS011;61559;50.476;15.588;2024-03-23T04:57:02;10.30;;;5.40;;
73107;SDS011;61559;50.476;15.588;2024-03-23T04:59:33;10.50;;;5.00;;
73107;SDS011;61559;50.476;15.588;2024-03-23T05:02:03;7.50;;;4.40;;
73107;SDS011;61559;50.476;15.588;2024-03-23T05:04:35;9.70;;;4.20;;
73107;SDS011;61559;50.476;15.588;2024-03-23T05:07:05;8.70;;;4.70;;
73107;SDS011;61559;50.476;15.588;2024-03-23T05:09:36;13.80;;;7.40;;
73107;SDS011;61559;50.476;15.588;2024-03-23T05:12:07;14.80;;;7.70;;
73107;SDS011;61559;50.476;15.588;2024-03-23T05:14:38;9.90;;;5.60;;
73107;SDS011;61559;50.476;15.588;2024-03-23T05:17:08;11.60;;;6.00;;
73107;SDS011;61559;50.476;15.588;2024-03-23T05:19:39;11.30;;;5.90;;
73107;SDS011;61559;50.476;15.588;2024-03-23T05:22:10;9.10;;;5.30;;
73107;SDS011;61559;50.476;15.588;2024-03-23T05:24:40;9.80;;;5.20;;
73107;SDS011;61559;50.476;15.588;2024-03-23T05:27:11;14.90;;;6.50;;
73107;SDS011;61559;50.476;15.588;2024-03-23T05:29:41;10.80;;;5.80;;
73107;SDS011;61559;50.476;15.588;2024-03-23T05:32:12;14.30;;;6.00;;
73107;SDS011;61559;50.476;15.588;2024-03-23T05:34:43;11.40;;;6.30;;
73107;SDS011;61559;50.476;15.588;2024-03-23T05:39:43;11.20;;;4.90;;
73107;SDS011;61559;50.476;15.588;2024-03-23T05:42:16;12.20;;;5.50;;
73107;SDS011;61559;50.476;15.588;2024-03-23T05:47:16;9.80;;;4.90;;
73107;SDS011;61559;50.476;15.588;2024-03-23T05:49:47;12.30;;;6.30;;
73107;SDS011;61559;50.476;15.588;2024-03-23T05:52:19;9.90;;;5.60;;
73107;SDS011;61559;50.476;15.588;2024-03-23T05:54:50;14.60;;;6.70;;
73107;SDS011;61559;50.476;15.588;2024-03-23T05:57:20;14.50;;;6.70;;
73107;SDS011;61559;50.476;15.588;2024-03-23T06:02:21;12.40;;;5.90;;
73107;SDS011;61559;50.476;15.588;2024-03-23T06:04:52;12.80;;;7.50;;
73107;SDS011;61559;50.476;15.588;2024-03-23T06:07:23;18.30;;;7.90;;
73107;SDS011;61559;50.476;15.588;2024-03-23T06:09:54;18.00;;;8.10;;
73107;SDS011;61559;50.476;15.588;2024-03-23T06:12:25;18.90;;;7.90;;
73107;SDS011;61559;50.476;15.588;2024-03-23T06:14:56;14.60;;;7.90;;
73107;SDS011;61559;50.476;15.588;2024-03-23T06:17:29;12.50;;;6.80;;
73107;SDS011;61559;50.476;15.588;2024-03-23T06:20:02;13.70;;;7.10;;
73107;SDS011;61559;50.476;15.588;2024-03-23T06:22:34;14.40;;;7.30;;
73107;SDS011;61559;50.476;15.588;2024-03-23T06:25:05;13.30;;;7.20;;
73107;SDS011;61559;50.476;15.588;2024-03-23T06:27:36;11.70;;;6.90;;
73107;SDS011;61559;50.476;15.588;2024-03-23T06:32:37;14.30;;;6.50;;
73107;SDS011;61559;50.476;15.588;2024-03-23T06:35:08;13.50;;;7.80;;
73107;SDS011;61559;50.476;15.588;2024-03-23T06:37:39;13.70;;;8.00;;
73107;SDS011;61559;50.476;15.588;2024-03-23T06:40:09;12.10;;;6.50;;
73107;SDS011;61559;50.476;15.588;2024-03-23T06:42:40;14.90;;;8.20;;
73107;SDS011;61559;50.476;15.588;2024-03-23T06:45:11;21.40;;;9.90;;
73107;SDS011;61559;50.476;15.588;2024-03-23T06:47:42;25.00;;;12.50;;
73107;SDS011;61559;50.476;15.588;2024-03-23T06:50:13;21.50;;;11.20;;
73107;SDS011;61559;50.476;15.588;2024-03-23T06:52:43;18.00;;;9.50;;
73107;SDS011;61559;50.476;15.588;2024-03-23T06:55:14;18.40;;;9.00;;
73107;SDS011;61559;50.476;15.588;2024-03-23T06:57:45;14.70;;;8.60;;
73107;SDS011;61559;50.476;15.588;2024-03-23T07:00:16;16.80;;;9.90;;
73107;SDS011;61559;50.476;15.588;2024-03-23T07:02:47;18.70;;;11.30;;
73107;SDS011;61559;50.476;15.588;2024-03-23T07:07:47;19.00;;;9.30;;
73107;SDS011;61559;50.476;15.588;2024-03-23T07:10:18;23.70;;;13.40;;
73107;SDS011;61559;50.476;15.588;2024-03-23T07:12:49;29.30;;;15.40;;
73107;SDS011;61559;50.476;15.588;2024-03-23T07:15:20;28.20;;;13.50;;
73107;SDS011;61559;50.476;15.588;2024-03-23T07:17:50;32.50;;;16.90;;
73107;SDS011;61559;50.476;15.588;2024-03-23T07:20:21;29.70;;;15.80;;
73107;SDS011;61559;50.476;15.588;2024-03-23T07:22:52;26.10;;;14.20;;
73107;SDS011;61559;50.476;15.588;2024-03-23T07:25:22;22.30;;;12.90;;
73107;SDS011;61559;50.476;15.588;2024-03-23T07:27:54;22.30;;;13.00;;
73107;SDS011;61559;50.476;15.588;2024-03-23T07:30:28;23.60;;;13.40;;
73107;SDS011;61559;50.476;15.588;2024-03-23T07:32:59;20.00;;;11.60;;
73107;SDS011;61559;50.476;15.588;2024-03-23T07:35:31;50.70;;;28.00;;
73107;SDS011;61559;50.476;15.588;2024-03-23T07:38:03;53.30;;;28.60;;
73107;SDS011;61559;50.476;15.588;2024-03-23T07:40:36;50.60;;;24.50;;
73107;SDS011;61559;50.476;15.588;2024-03-23T07:43:06;61.80;;;31.10;;
73107;SDS011;61559;50.476;15.588;2024-03-23T07:45:37;55.50;;;28.90;;
73107;SDS011;61559;50.476;15.588;2024-03-23T07:48:08;56.30;;;27.30;;
73107;SDS011;61559;50.476;15.588;2024-03-23T07:50:39;62.10;;;27.80;;
73107;SDS011;61559;50.476;15.588;2024-03-23T07:53:09;33.90;;;18.00;;
73107;SDS011;61559;50.476;15.588;2024-03-23T07:55:40;34.00;;;17.50;;
73107;SDS011;61559;50.476;15.588;2024-03-23T07:58:11;32.40;;;15.10;;
73107;SDS011;61559;50.476;15.588;2024-03-23T08:00:42;31.80;;;16.60;;
73107;SDS011;61559;50.476;15.588;2024-03-23T08:03:12;65.80;;;33.90;;
73107;SDS011;61559;50.476;15.588;2024-03-23T08:05:44;43.70;;;24.30;;
73107;SDS011;61559;50.476;15.588;2024-03-23T08:08:15;28.50;;;14.70;;
73107;SDS011;61559;50.476;15.588;2024-03-23T08:13:28;23.00;;;11.10;;
73107;SDS011;61559;50.476;15.588;2024-03-23T08:15:59;20.30;;;11.50;;
73107;SDS011;61559;50.476;15.588;2024-03-23T08:18:31;19.20;;;10.20;;
73107;SDS011;61559;50.476;15.588;2024-03-23T08:21:03;20.80;;;11.10;;
73107;SDS011;61559;50.476;15.588;2024-03-23T08:23:34;26.30;;;15.00;;
73107;SDS011;61559;50.476;15.588;2024-03-23T08:26:06;37.50;;;17.60;;
73107;SDS011;61559;50.476;15.588;2024-03-23T08:28:38;20.10;;;10.90;;
73107;SDS011;61559;50.476;15.588;2024-03-23T08:31:09;15.90;;;8.30;;
73107;SDS011;61559;50.476;15.588;2024-03-23T08:33:41;15.80;;;9.10;;
73107;SDS011;61559;50.476;15.588;2024-03-23T08:36:12;16.40;;;8.40;;
73107;SDS011;61559;50.476;15.588;2024-03-23T08:41:12;13.90;;;7.50;;
73107;SDS011;61559;50.476;15.588;2024-03-23T08:43:46;16.20;;;9.30;;
73107;SDS011;61559;50.476;15.588;2024-03-23T08:46:17;15.10;;;8.40;;
73107;SDS011;61559;50.476;15.588;2024-03-23T08:48:48;13.40;;;8.40;;
73107;SDS011;61559;50.476;15.588;2024-03-23T08:51:20;12.80;;;6.80;;
73107;SDS011;61559;50.476;15.588;2024-03-23T08:56:20;15.40;;;10.10;;
73107;SDS011;61559;50.476;15.588;2024-03-23T09:01:20;16.30;;;7.80;;
73107;SDS011;61559;50.476;15.588;2024-03-23T09:03:52;20.20;;;9.60;;
73107;SDS011;61559;50.476;15.588;2024-03-23T09:06:23;13.80;;;8.20;;
73107;SDS011;61559;50.476;15.588;2024-03-23T09:11:23;12.40;;;7.40;;
73107;SDS011;61559;50.476;15.588;2024-03-23T09:13:56;10.00;;;6.50;;
73107;SDS011;61559;50.476;15.588;2024-03-23T09:16:44;11.90;;;7.10;;
73107;SDS011;61559;50.476;15.588;2024-03-23T09:19:15;16.90;;;9.60;;
73107;SDS011;61559;50.476;15.588;2024-03-23T09:21:46;13.60;;;7.70;;
73107;SDS011;61559;50.476;15.588;2024-03-23T09:24:18;10.20;;;6.80;;
73107;SDS011;61559;50.476;15.588;2024-03-23T09:26:51;12.30;;;7.30;;
73107;SDS011;61559;50.476;15.588;2024-03-23T09:29:21;16.30;;;7.40;;
73107;SDS011;61559;50.476;15.588;2024-03-23T09:31:52;12.20;;;8.00;;
73107;SDS011;61559;50.476;15.588;2024-03-23T09:34:40;10.70;;;6.70;;
73107;SDS011;61559;50.476;15.588;2024-03-23T09:37:11;10.80;;;6.40;;
73107;SDS011;61559;50.476;15.588;2024-03-23T09:39:43;12.60;;;7.60;;
73107;SDS011;61559;50.476;15.588;2024-03-23T09:42:14;13.00;;;7.10;;
73107;SDS011;61559;50.476;15.588;2024-03-23T09:44:45;12.40;;;7.10;;
73107;SDS011;61559;50.476;15.588;2024-03-23T09:47:17;10.30;;;6.30;;
73107;SDS011;61559;50.476;15.588;2024-03-23T09:49:48;11.70;;;6.70;;
73107;SDS011;61559;50.476;15.588;2024-03-23T09:52:19;9.70;;;6.80;;
73107;SDS011;61559;50.476;15.588;2024-03-23T09:57:19;10.50;;;6.30;;
73107;SDS011;61559;50.476;15.588;2024-03-23T09:59:49;11.00;;;7.30;;
73107;SDS011;61559;50.476;15.588;2024-03-23T10:02:21;12.70;;;7.60;;
73107;SDS011;61559;50.476;15.588;2024-03-23T10:04:52;12.30;;;7.40;;
73107;SDS011;61559;50.476;15.588;2024-03-23T10:07:25;10.80;;;6.80;;
73107;SDS011;61559;50.476;15.588;2024-03-23T10:09:57;10.50;;;6.20;;
73107;SDS011;61559;50.476;15.588;2024-03-23T10:12:40;9.30;;;6.30;;
73107;SDS011;61559;50.476;15.588;2024-03-23T10:15:17;13.10;;;6.70;;
73107;SDS011;61559;50.476;15.588;2024-03-23T10:17:49;14.90;;;7.60;;
73107;SDS011;61559;50.476;15.588;2024-03-23T10:20:20;17.20;;;8.30;;
73107;SDS011;61559;50.476;15.588;2024-03-23T10:22:52;12.40;;;7.10;;
73107;SDS011;61559;50.476;15.588;2024-03-23T10:25:24;9.10;;;6.40;;
73107;SDS011;61559;50.476;15.588;2024-03-23T10:27:59;9.80;;;5.70;;
73107;SDS011;61559;50.476;15.588;2024-03-23T10:30:31;9.60;;;6.20;;
73107;SDS011;61559;50.476;15.588;2024-03-23T10:33:08;12.40;;;7.10;;
73107;SDS011;61559;50.476;15.588;2024-03-23T10:35:39;10.30;;;6.60;;
73107;SDS011;61559;50.476;15.588;2024-03-23T10:38:10;10.10;;;5.60;;
73107;SDS011;61559;50.476;15.588;2024-03-23T10:40:41;10.10;;;6.00;;
73107;SDS011;61559;50.476;15.588;2024-03-23T10:43:13;8.40;;;4.30;;
73107;SDS011;61559;50.476;15.588;2024-03-23T10:45:44;6.20;;;3.60;;
73107;SDS011;61559;50.476;15.588;2024-03-23T10:48:15;14.40;;;6.60;;
73107;SDS011;61559;50.476;15.588;2024-03-23T10:50:46;4.00;;;3.00;;
73107;SDS011;61559;50.476;15.588;2024-03-23T10:53:17;7.30;;;3.10;;
73107;SDS011;61559;50.476;15.588;2024-03-23T10:55:48;5.60;;;3.30;;
73107;SDS011;61559;50.476;15.588;2024-03-23T10:58:19;8.50;;;4.00;;
73107;SDS011;61559;50.476;15.588;2024-03-23T11:00:54;5.90;;;2.90;;
73107;SDS011;61559;50.476;15.588;2024-03-23T11:03:31;9.80;;;5.00;;
73107;SDS011;61559;50.476;15.588;2024-03-23T11:06:04;5.10;;;3.30;;
73107;SDS011;61559;50.476;15.588;2024-03-23T11:08:36;7.00;;;4.40;;
73107;SDS011;61559;50.476;15.588;2024-03-23T11:11:13;7.50;;;4.20;;
73107;SDS011;61559;50.476;15.588;2024-03-23T11:13:47;6.80;;;4.10;;
73107;SDS011;61559;50.476;15.588;2024-03-23T11:16:21;6.20;;;4.20;;
73107;SDS011;61559;50.476;15.588;2024-03-23T11:18:52;9.10;;;5.20;;
73107;SDS011;61559;50.476;15.588;2024-03-23T11:24:26;7.20;;;4.30;;
73107;SDS011;61559;50.476;15.588;2024-03-23T11:26:56;9.30;;;4.60;;
73107;SDS011;61559;50.476;15.588;2024-03-23T11:29:28;7.50;;;4.20;;
73107;SDS011;61559;50.476;15.588;2024-03-23T11:31:59;10.90;;;4.50;;
73107;SDS011;61559;50.476;15.588;2024-03-23T11:34:32;6.10;;;4.00;;
73107;SDS011;61559;50.476;15.588;2024-03-23T11:37:05;5.60;;;3.90;;
73107;SDS011;61559;50.476;15.588;2024-03-23T11:39:36;6.80;;;4.00;;
73107;SDS011;61559;50.476;15.588;2024-03-23T11:44:36;8.30;;;4.40;;
73107;SDS011;61559;50.476;15.588;2024-03-23T11:47:10;9.90;;;4.70;;
73107;SDS011;61559;50.476;15.588;2024-03-23T11:49:40;7.20;;;4.00;;
73107;SDS011;61559;50.476;15.588;2024-03-23T11:52:14;6.20;;;3.80;;
73107;SDS011;61559;50.476;15.588;2024-03-23T11:54:47;8.20;;;4.30;;
73107;SDS011;61559;50.476;15.588;2024-03-23T11:57:17;7.80;;;4.20;;
73107;SDS011;61559;50.476;15.588;2024-03-23T11:59:49;5.80;;;3.80;;
73107;SDS011;61559;50.476;15.588;2024-03-23T12:02:19;14.60;;;6.50;;
73107;SDS011;61559;50.476;15.588;2024-03-23T12:04:50;7.90;;;3.60;;
73107;SDS011;61559;50.476;15.588;2024-03-23T12:07:22;11.60;;;5.40;;
73107;SDS011;61559;50.476;15.588;2024-03-23T12:10:03;5.80;;;3.40;;
73107;SDS011;61559;50.476;15.588;2024-03-23T12:12:35;6.50;;;3.70;;
73107;SDS011;61559;50.476;15.588;2024-03-23T12:17:37;7.40;;;4.10;;
73107;SDS011;61559;50.476;15.588;2024-03-23T12:20:08;13.70;;;6.30;;
73107;SDS011;61559;50.476;15.588;2024-03-23T12:22:39;12.70;;;6.20;;
73107;SDS011;61559;50.476;15.588;2024-03-23T12:25:09;6.30;;;4.10;;
73107;SDS011;61559;50.476;15.588;2024-03-23T12:27:40;6.10;;;4.10;;
73107;SDS011;61559;50.476;15.588;2024-03-23T12:30:12;6.70;;;4.10;;
73107;SDS011;61559;50.476;15.588;2024-03-23T12:32:42;9.50;;;5.10;;
73107;SDS011;61559;50.476;15.588;2024-03-23T12:35:13;6.70;;;4.50;;
73107;SDS011;61559;50.476;15.588;2024-03-23T12:40:13;7.10;;;3.40;;
73107;SDS011;61559;50.476;15.588;2024-03-23T12:42:44;8.90;;;4.50;;
73107;SDS011;61559;50.476;15.588;2024-03-23T12:45:15;10.10;;;5.70;;
73107;SDS011;61559;50.476;15.588;2024-03-23T12:47:46;5.40;;;3.80;;
73107;SDS011;61559;50.476;15.588;2024-03-23T12:50:16;6.90;;;4.30;;
73107;SDS011;61559;50.476;15.588;2024-03-23T12:52:47;4.60;;;2.90;;
73107;SDS011;61559;50.476;15.588;2024-03-23T12:55:18;3.70;;;2.80;;
73107;SDS011;61559;50.476;15.588;2024-03-23T12:57:49;3.80;;;3.00;;
73107;SDS011;61559;50.476;15.588;2024-03-23T13:00:20;3.50;;;2.20;;
73107;SDS011;61559;50.476;15.588;2024-03-23T13:02:50;6.80;;;3.30;;
73107;SDS011;61559;50.476;15.588;2024-03-23T13:05:21;4.60;;;3.00;;
73107;SDS011;61559;50.476;15.588;2024-03-23T13:07:52;4.20;;;1.60;;
73107;SDS011;61559;50.476;15.588;2024-03-23T13:10:22;2.30;;;1.50;;
73107;SDS011;61559;50.476;15.588;2024-03-23T13:12:53;1.90;;;1.20;;
73107;SDS011;61559;50.476;15.588;2024-03-23T13:15:24;1.60;;;0.90;;
73107;SDS011;61559;50.476;15.588;2024-03-23T13:17:54;3.80;;;1.20;;
73107;SDS011;61559;50.476;15.588;2024-03-23T13:20:27;1.50;;;0.70;;
73107;SDS011;61559;50.476;15.588;2024-03-23T13:22:57;1.20;;;0.70;;
73107;SDS011;61559;50.476;15.588;2024-03-23T13:25:29;1.60;;;1.50;;
73107;SDS011;61559;50.476;15.588;2024-03-23T13:27:59;1.50;;;1.10;;
73107;SDS011;61559;50.476;15.588;2024-03-23T13:32:59;6.90;;;2.20;;
73107;SDS011;61559;50.476;15.588;2024-03-23T13:35:30;0.50;;;0.40;;
73107;SDS011;61559;50.476;15.588;2024-03-23T13:38:01;0.40;;;0.40;;
73107;SDS011;61559;50.476;15.588;2024-03-23T13:40:32;1.00;;;0.60;;
73107;SDS011;61559;50.476;15.588;2024-03-23T13:43:02;0.30;;;0.30;;
73107;SDS011;61559;50.476;15.588;2024-03-23T13:45:33;0.40;;;0.30;;
73107;SDS011;61559;50.476;15.588;2024-03-23T13:48:05;0.40;;;0.40;;
73107;SDS011;61559;50.476;15.588;2024-03-23T13:50:36;1.70;;;0.90;;
73107;SDS011;61559;50.476;15.588;2024-03-23T13:53:06;0.30;;;0.30;;
73107;SDS011;61559;50.476;15.588;2024-03-23T13:55:37;1.20;;;0.40;;
73107;SDS011;61559;50.476;15.588;2024-03-23T13:58:14;2.00;;;0.90;;
73107;SDS011;61559;50.476;15.588;2024-03-23T14:00:45;0.50;;;0.50;;
73107;SDS011;61559;50.476;15.588;2024-03-23T14:03:22;0.80;;;0.70;;
73107;SDS011;61559;50.476;15.588;2024-03-23T14:05:53;0.60;;;0.50;;
73107;SDS011;61559;50.476;15.588;2024-03-23T14:08:26;0.70;;;0.50;;
73107;SDS011;61559;50.476;15.588;2024-03-23T14:11:00;0.30;;;0.30;;
73107;SDS011;61559;50.476;15.588;2024-03-23T14:13:31;0.30;;;0.30;;
73107;SDS011;61559;50.476;15.588;2024-03-23T14:16:03;0.20;;;0.20;;
73107;SDS011;61559;50.476;15.588;2024-03-23T14:18:34;0.30;;;0.30;;
73107;SDS011;61559;50.476;15.588;2024-03-23T14:21:05;1.70;;;0.80;;
73107;SDS011;61559;50.476;15.588;2024-03-23T14:26:05;1.10;;;0.40;;
73107;SDS011;61559;50.476;15.588;2024-03-23T14:28:36;0.20;;;0.20;;
73107;SDS011;61559;50.476;15.588;2024-03-23T14:31:07;0.70;;;0.30;;
73107;SDS011;61559;50.476;15.588;2024-03-23T14:33:39;1.00;;;0.40;;
73107;SDS011;61559;50.476;15.588;2024-03-23T14:36:14;0.80;;;0.70;;
73107;SDS011;61559;50.476;15.588;2024-03-23T14:38:48;2.00;;;1.50;;
73107;SDS011;61559;50.476;15.588;2024-03-23T14:41:19;6.50;;;4.30;;
73107;SDS011;61559;50.476;15.588;2024-03-23T14:43:50;1.70;;;1.40;;
73107;SDS011;61559;50.476;15.588;2024-03-23T14:46:22;1.90;;;0.90;;
73107;SDS011;61559;50.476;15.588;2024-03-23T14:48:52;2.40;;;2.00;;
73107;SDS011;61559;50.476;15.588;2024-03-23T14:51:23;2.00;;;1.60;;
73107;SDS011;61559;50.476;15.588;2024-03-23T14:53:55;2.80;;;2.30;;
73107;SDS011;61559;50.476;15.588;2024-03-23T14:56:26;1.90;;;1.50;;
73107;SDS011;61559;50.476;15.588;2024-03-23T14:58:57;0.70;;;0.60;;
73107;SDS011;61559;50.476;15.588;2024-03-23T15:01:28;0.90;;;0.60;;
73107;SDS011;61559;50.476;15.588;2024-03-23T15:03:59;2.10;;;0.80;;
73107;SDS011;61559;50.476;15.588;2024-03-23T15:06:31;0.70;;;0.70;;
73107;SDS011;61559;50.476;15.588;2024-03-23T15:09:02;0.60;;;0.40;;
73107;SDS011;61559;50.476;15.588;2024-03-23T15:11:35;0.50;;;0.50;;
73107;SDS011;61559;50.476;15.588;2024-03-23T15:14:06;1.00;;;0.60;;
73107;SDS011;61559;50.476;15.588;2024-03-23T15:16:38;3.20;;;1.70;;
73107;SDS011;61559;50.476;15.588;2024-03-23T15:19:10;2.30;;;0.80;;
73107;SDS011;61559;50.476;15.588;2024-03-23T15:21:40;2.10;;;1.30;;
73107;SDS011;61559;50.476;15.588;2024-03-23T15:24:11;0.90;;;0.70;;
73107;SDS011;61559;50.476;15.588;2024-03-23T15:26:42;0.50;;;0.50;;
73107;SDS011;61559;50.476;15.588;2024-03-23T15:29:12;0.70;;;0.70;;
73107;SDS011;61559;50.476;15.588;2024-03-23T15:31:44;0.50;;;0.40;;
73107;SDS011;61559;50.476;15.588;2024-03-23T15:34:18;0.60;;;0.40;;
73107;SDS011;61559;50.476;15.588;2024-03-23T15:36:49;2.00;;;1.30;;
73107;SDS011;61559;50.476;15.588;2024-03-23T15:39:20;0.60;;;0.60;;
73107;SDS011;61559;50.476;15.588;2024-03-23T15:41:51;2.70;;;1.60;;
73107;SDS011;61559;50.476;15.588;2024-03-23T15:44:22;0.50;;;0.40;;
73107;SDS011;61559;50.476;15.588;2024-03-23T15:46:54;1.80;;;1.10;;
73107;SDS011;61559;50.476;15.588;2024-03-23T15:49:24;1.10;;;0.80;;
73107;SDS011;61559;50.476;15.588;2024-03-23T15:51:55;1.40;;;0.70;;
73107;SDS011;61559;50.476;15.588;2024-03-23T15:54:27;1.70;;;1.20;;
73107;SDS011;61559;50.476;15.588;2024-03-23T15:56:58;1.50;;;1.00;;
73107;SDS011;61559;50.476;15.588;2024-03-23T15:59:28;1.50;;;0.80;;
73107;SDS011;61559;50.476;15.588;2024-03-23T16:01:59;2.30;;;1.50;;
73107;SDS011;61559;50.476;15.588;2024-03-23T16:04:30;1.00;;;0.80;;
73107;SDS011;61559;50.476;15.588;2024-03-23T16:07:01;2.10;;;1.80;;
73107;SDS011;61559;50.476;15.588;2024-03-23T16:09:32;1.40;;;1.20;;
73107;SDS011;61559;50.476;15.588;2024-03-23T16:12:03;1.70;;;1.00;;
73107;SDS011;61559;50.476;15.588;2024-03-23T16:14:34;1.70;;;1.20;;
73107;SDS011;61559;50.476;15.588;2024-03-23T16:17:05;2.20;;;1.10;;
73107;SDS011;61559;50.476;15.588;2024-03-23T16:19:36;1.20;;;1.10;;
73107;SDS011;61559;50.476;15.588;2024-03-23T16:22:06;1.90;;;1.00;;
73107;SDS011;61559;50.476;15.588;2024-03-23T16:24:37;3.00;;;1.50;;
73107;SDS011;61559;50.476;15.588;2024-03-23T16:27:08;9.00;;;4.10;;
73107;SDS011;61559;50.476;15.588;2024-03-23T16:29:39;11.90;;;7.70;;
73107;SDS011;61559;50.476;15.588;2024-03-23T16:32:09;2.40;;;1.50;;
73107;SDS011;61559;50.476;15.588;2024-03-23T16:34:40;3.30;;;1.90;;
73107;SDS011;61559;50.476;15.588;2024-03-23T16:37:11;2.90;;;1.10;;
73107;SDS011;61559;50.476;15.588;2024-03-23T16:39:41;1.40;;;1.20;;
73107;SDS011;61559;50.476;15.588;2024-03-23T16:42:12;3.30;;;1.70;;
73107;SDS011;61559;50.476;15.588;2024-03-23T16:44:43;1.60;;;1.40;;